Time;durP1;ratioP1;P1;durP2;ratioP2;P2;SDS_P1;SDS_P2;PMS_P1;PMS_P2;Temp;Humidity;BMP_temperature;BMP_pressure;BME280_temperature;BME280_humidity;BME280_pressure;Samples;Min_cycle;Max_cycle;Signal;HPM_P1;HPM_P2
2024/01/17 00:00:59;;;;;;;15.10;8.80;;;11.70;96.70;;;;;;5058848;28;20060;-74
2024/01/17 00:03:41;;;;;;;13.82;8.40;;;11.70;96.70;;;;;;5064671;28;20048;-74
2024/01/17 00:06:16;;;;;;;14.57;8.60;;;11.70;96.70;;;;;;5066261;28;20301;-74
2024/01/17 00:09:14;;;;;;;15.13;8.73;;;11.70;96.70;;;;;;5062437;28;20053;-74
2024/01/17 00:11:43;;;;;;;13.02;8.40;;;11.70;96.70;;;;;;5072199;28;20056;-75
2024/01/17 00:14:16;;;;;;;12.02;7.75;;;11.70;96.70;;;;;;5059761;28;20055;-74
2024/01/17 00:17:07;;;;;;;15.73;8.65;;;11.70;96.70;;;;;;5063029;28;20172;-75
2024/01/17 00:19:56;;;;;;;13.50;8.68;;;11.70;96.70;;;;;;5052660;28;20509;-75
2024/01/17 00:22:26;;;;;;;12.88;8.65;;;11.70;96.70;;;;;;5061287;28;20053;-75
2024/01/17 00:24:54;;;;;;;12.20;8.27;;;11.70;96.70;;;;;;5060445;28;20065;-74
2024/01/17 00:27:26;;;;;;;11.75;8.43;;;11.70;96.70;;;;;;5065052;28;20050;-75
2024/01/17 00:30:03;;;;;;;11.48;7.82;;;11.80;96.70;;;;;;5059530;28;20056;-74
2024/01/17 00:32:43;;;;;;;15.50;9.35;;;11.70;96.70;;;;;;5051521;28;20064;-74
2024/01/17 00:35:29;;;;;;;11.23;8.27;;;11.70;96.70;;;;;;5065806;28;20056;-75
2024/01/17 00:38:14;;;;;;;12.50;8.38;;;11.60;96.70;;;;;;5060988;28;20144;-74
2024/01/17 00:40:45;;;;;;;12.45;9.27;;;11.70;96.70;;;;;;5056071;28;20049;-74
2024/01/17 00:43:25;;;;;;;12.98;8.65;;;11.60;96.70;;;;;;5074231;28;20106;-74
2024/01/17 00:45:54;;;;;;;15.07;8.98;;;11.60;96.70;;;;;;5063762;28;20666;-74
2024/01/17 00:48:25;;;;;;;11.27;8.38;;;11.60;96.70;;;;;;5057437;28;20076;-74
2024/01/17 00:50:54;;;;;;;13.75;8.65;;;11.60;96.70;;;;;;5049310;28;20056;-73
2024/01/17 00:53:23;;;;;;;10.98;8.55;;;11.60;96.70;;;;;;5049401;28;20314;-73
2024/01/17 00:55:55;;;;;;;11.20;8.15;;;11.60;96.70;;;;;;5082565;28;20056;-74
2024/01/17 00:58:45;;;;;;;12.88;9.15;;;11.60;96.70;;;;;;5075355;28;20463;-73
2024/01/17 01:01:17;;;;;;;12.98;8.98;;;11.50;96.70;;;;;;5036859;28;20057;-74
2024/01/17 01:04:12;;;;;;;12.82;8.88;;;11.50;96.70;;;;;;5073713;28;20056;-74
2024/01/17 01:06:41;;;;;;;12.80;8.80;;;11.50;96.70;;;;;;5086656;28;20170;-73
2024/01/17 01:09:13;;;;;;;12.85;8.32;;;11.50;96.70;;;;;;5078432;28;20045;-74
2024/01/17 01:12:04;;;;;;;13.40;8.70;;;11.60;96.70;;;;;;5050914;28;20060;-74
2024/01/17 01:14:33;;;;;;;13.07;9.05;;;11.50;96.70;;;;;;5051312;28;20472;-74
2024/01/17 01:17:17;;;;;;;12.52;9.40;;;11.50;96.70;;;;;;5061178;28;20243;-73
2024/01/17 01:19:47;;;;;;;14.50;9.45;;;11.50;96.70;;;;;;5079897;28;20064;-74
2024/01/17 01:22:17;;;;;;;13.60;9.45;;;11.60;96.70;;;;;;5063411;28;20681;-73
2024/01/17 01:25:19;;;;;;;12.48;8.93;;;11.60;96.70;;;;;;5061066;28;20059;-74
2024/01/17 01:31:16;;;;;;;13.88;9.38;;;11.50;96.70;;;;;;5001738;28;20112;-75
2024/01/17 01:33:46;;;;;;;13.38;9.95;;;11.50;96.70;;;;;;5007937;28;20077;-74
2024/01/17 01:36:29;;;;;;;14.38;9.35;;;11.50;96.70;;;;;;5037864;28;20146;-74
2024/01/17 01:39:31;;;;;;;15.15;9.82;;;11.40;96.70;;;;;;5010958;28;20056;-74
2024/01/17 01:42:20;;;;;;;16.38;9.60;;;11.50;96.70;;;;;;4964194;28;20097;-74
2024/01/17 01:44:58;;;;;;;13.52;9.07;;;11.50;96.70;;;;;;4947518;28;20063;-74
2024/01/17 01:47:28;;;;;;;13.40;8.73;;;11.50;96.70;;;;;;4963869;28;20058;-74
2024/01/17 01:54:03;;;;;;;12.52;8.70;;;11.50;96.70;;;;;;4938899;28;20055;-74
2024/01/17 01:56:37;;;;;;;10.65;8.57;;;11.50;96.70;;;;;;4944372;28;20051;-74
2024/01/17 01:59:07;;;;;;;12.00;8.63;;;11.50;96.70;;;;;;4948029;28;20547;-74
2024/01/17 02:01:41;;;;;;;12.75;8.57;;;11.60;96.70;;;;;;4946027;28;20066;-74
2024/01/17 02:04:16;;;;;;;11.38;8.15;;;11.60;96.70;;;;;;4964344;28;20054;-74
2024/01/17 02:11:06;;;;;;;13.52;9.68;;;11.60;96.70;;;;;;4926133;29;20108;-73
2024/01/17 02:14:01;;;;;;;13.05;8.75;;;11.40;96.70;;;;;;4940422;28;20096;-74
2024/01/17 02:17:08;;;;;;;15.27;9.60;;;11.40;96.70;;;;;;4990905;28;20050;-73
2024/01/17 02:20:15;;;;;;;15.40;9.65;;;11.30;96.70;;;;;;5058842;28;20058;-73
2024/01/17 02:23:26;;;;;;;13.93;9.95;;;11.30;96.70;;;;;;5033230;28;20049;-74
2024/01/17 02:30:26;;;;;;;14.38;9.02;;;11.30;96.70;;;;;;4998434;28;20050;-74
2024/01/17 02:32:53;;;;;;;14.27;9.82;;;11.40;96.70;;;;;;5017084;28;20054;-74
2024/01/17 02:35:42;;;;;;;12.50;9.77;;;11.40;96.70;;;;;;5008424;28;20061;-74
2024/01/17 02:42:11;;;;;;;13.57;8.65;;;11.40;96.70;;;;;;4927219;29;20055;-74
2024/01/17 02:44:41;;;;;;;15.65;9.38;;;11.30;96.70;;;;;;5022569;28;20429;-75
2024/01/17 02:47:36;;;;;;;12.98;8.82;;;11.30;96.70;;;;;;5019479;28;20061;-74
2024/01/17 02:54:34;;;;;;;10.85;8.52;;;11.40;96.70;;;;;;4980525;28;20399;-74
2024/01/17 02:57:14;;;;;;;14.55;8.82;;;11.40;96.70;;;;;;4997456;28;20779;-74
2024/01/17 02:59:43;;;;;;;11.77;9.00;;;11.40;96.70;;;;;;4979135;28;20061;-74
2024/01/17 03:02:15;;;;;;;12.02;9.13;;;11.40;96.70;;;;;;4999682;28;20077;-74
2024/01/17 03:05:13;;;;;;;12.50;9.07;;;11.40;96.70;;;;;;4998358;28;20068;-74
2024/01/17 03:08:01;;;;;;;12.13;9.02;;;11.30;96.70;;;;;;4995402;28;20053;-74
2024/01/17 03:18:16;;;;;;;12.57;8.85;;;11.20;96.70;;;;;;5084003;28;20055;-74
2024/01/17 03:20:50;;;;;;;11.73;9.43;;;11.30;96.70;;;;;;5102427;28;20072;-74
2024/01/17 03:23:49;;;;;;;12.15;9.40;;;11.20;96.70;;;;;;5072303;28;20056;-74
2024/01/17 03:45:17;;;;;;;11.75;8.80;;;11.30;96.70;;;;;;5081037;27;20110;-75
2024/01/17 03:47:50;;;;;;;14.90;8.93;;;11.30;96.70;;;;;;5065293;28;20110;-74
2024/01/17 03:50:24;;;;;;;12.63;8.65;;;11.20;96.70;;;;;;5064477;28;20105;-74
2024/01/17 03:52:58;;;;;;;11.65;8.90;;;11.10;96.70;;;;;;5055323;28;20060;-74
2024/01/17 03:55:31;;;;;;;12.20;8.80;;;11.00;96.70;;;;;;5048551;28;20126;-74
2024/01/17 03:59:05;;;;;;;12.88;7.75;;;11.00;96.70;;;;;;5047247;28;20791;-74
2024/01/17 04:01:48;;;;;;;12.18;8.48;;;11.10;96.70;;;;;;4964203;28;20149;-74
2024/01/17 04:04:17;;;;;;;11.48;7.80;;;11.10;96.70;;;;;;4968589;28;20390;-75
2024/01/17 04:06:49;;;;;;;13.60;8.35;;;11.10;96.70;;;;;;4961523;28;20065;-74
2024/01/17 04:09:19;;;;;;;12.88;7.90;;;11.20;96.70;;;;;;4985530;28;20632;-74
2024/01/17 04:15:19;;;;;;;11.15;8.23;;;11.30;96.70;;;;;;4990793;28;20050;-74
2024/01/17 04:17:50;;;;;;;9.70;8.30;;;11.30;96.70;;;;;;4983828;28;20113;-74
2024/01/17 04:21:52;;;;;;;8.98;7.82;;;11.30;96.70;;;;;;4893109;29;20063;-74
2024/01/17 04:32:24;;;;;;;10.75;7.70;;;11.30;96.70;;;;;;5016592;28;20076;-73
2024/01/17 04:35:22;;;;;;;10.32;7.90;;;11.40;96.70;;;;;;4963254;28;20559;-74
2024/01/17 04:38:32;;;;;;;10.25;8.30;;;11.40;96.70;;;;;;4999654;28;20180;-74
2024/01/17 04:41:27;;;;;;;10.73;8.57;;;11.40;96.70;;;;;;4997656;28;20064;-73
2024/01/17 04:44:00;;;;;;;13.02;8.20;;;11.40;96.70;;;;;;4995435;28;20144;-74
2024/01/17 04:46:37;;;;;;;13.35;8.32;;;11.40;96.70;;;;;;4992232;28;20120;-74
2024/01/17 04:49:07;;;;;;;11.85;8.48;;;11.30;96.70;;;;;;4977061;28;20073;-74
2024/01/17 04:51:47;;;;;;;10.80;8.65;;;11.30;96.70;;;;;;4990944;28;20511;-74
2024/01/17 04:54:21;;;;;;;12.20;8.70;;;11.30;96.70;;;;;;4980170;28;20065;-74
2024/01/17 04:57:52;;;;;;;10.73;8.50;;;11.30;96.70;;;;;;4983024;28;20127;-74
2024/01/17 05:00:21;;;;;;;12.77;8.43;;;11.30;96.70;;;;;;4991830;28;20062;-74
2024/01/17 05:03:02;;;;;;;10.48;8.23;;;11.30;96.70;;;;;;5008389;28;20527;-74
2024/01/17 05:06:16;;;;;;;12.10;8.15;;;11.20;96.70;;;;;;4956159;28;20058;-74
2024/01/17 05:08:52;;;;;;;11.65;8.57;;;11.20;96.70;;;;;;4953428;28;20072;-74
2024/01/17 05:12:16;;;;;;;11.15;8.38;;;11.20;96.70;;;;;;4993277;28;20870;-74
2024/01/17 05:15:44;;;;;;;10.13;7.93;;;11.20;96.70;;;;;;4996291;28;20131;-74
2024/01/17 05:18:35;;;;;;;10.40;7.80;;;11.30;96.70;;;;;;5018117;28;21810;-74
2024/01/17 05:21:04;;;;;;;11.93;8.68;;;11.30;96.70;;;;;;5043153;28;20057;-74
2024/01/17 05:24:06;;;;;;;10.10;8.00;;;11.30;96.70;;;;;;5048370;28;20114;-75
2024/01/17 05:26:47;;;;;;;10.77;8.32;;;11.20;96.70;;;;;;5051601;28;20109;-74
2024/01/17 05:29:17;;;;;;;11.00;8.10;;;11.20;96.70;;;;;;5066612;28;20055;-75
2024/01/17 05:31:51;;;;;;;11.80;8.77;;;11.20;96.70;;;;;;5046234;28;20866;-74
2024/01/17 05:34:20;;;;;;;13.05;9.02;;;11.20;96.70;;;;;;5051004;28;20074;-74
2024/01/17 05:40:59;;;;;;;11.32;8.48;;;11.30;96.70;;;;;;5021357;28;21161;-74
2024/01/17 05:44:44;;;;;;;10.38;8.07;;;11.30;96.70;;;;;;4958402;28;20077;-74
2024/01/17 05:48:15;;;;;;;11.70;8.30;;;11.30;96.70;;;;;;4964411;28;20054;-74
2024/01/17 05:51:12;;;;;;;11.00;9.13;;;11.30;96.70;;;;;;4963592;28;20066;-74
2024/01/17 05:56:49;;;;;;;12.20;8.50;;;11.30;96.70;;;;;;4948034;28;20062;-74
2024/01/17 05:59:41;;;;;;;10.60;8.82;;;11.30;96.70;;;;;;4934031;28;20491;-75
2024/01/17 06:06:37;;;;;;;9.80;7.95;;;11.30;96.70;;;;;;4916713;28;20065;-74
2024/01/17 06:11:01;;;;;;;11.80;8.27;;;11.30;96.70;;;;;;4906850;29;20582;-75
2024/01/17 06:14:14;;;;;;;10.73;8.27;;;11.30;96.70;;;;;;4856657;29;20128;-74
2024/01/17 06:21:57;;;;;;;10.95;7.97;;;11.20;96.70;;;;;;5017561;28;20883;-74
2024/01/17 06:29:34;;;;;;;11.15;7.93;;;11.20;96.70;;;;;;4988768;28;20049;-73
2024/01/17 06:33:10;;;;;;;11.25;8.25;;;11.20;96.70;;;;;;5054457;28;20744;-75
2024/01/17 06:35:59;;;;;;;;;;;;;;;;;;;;;
2024/01/17 06:38:31;;;;;;;10.52;8.05;;;11.20;96.70;;;;;;5065154;28;20451;-74
2024/01/17 06:41:03;;;;;;;11.30;7.53;;;11.30;96.70;;;;;;5063885;28;20082;-74
2024/01/17 06:44:11;;;;;;;14.48;9.07;;;11.30;96.70;;;;;;5062198;28;20448;-74
2024/01/17 06:50:21;;;;;;;10.40;8.00;;;11.30;96.70;;;;;;5020744;28;20744;-74
2024/01/17 06:52:50;;;;;;;11.18;7.97;;;11.30;96.70;;;;;;5046320;28;20088;-74
2024/01/17 06:55:19;;;;;;;10.23;7.38;;;11.30;96.70;;;;;;5037302;28;20354;-74
2024/01/17 06:57:53;;;;;;;12.07;7.50;;;11.40;96.70;;;;;;5030620;28;20053;-74
2024/01/17 07:00:56;;;;;;;9.55;7.90;;;11.30;96.70;;;;;;5061799;28;20610;-74
2024/01/17 07:04:11;;;;;;;10.73;7.40;;;11.30;96.70;;;;;;5059088;28;20129;-74
2024/01/17 07:06:50;;;;;;;9.35;7.65;;;11.30;96.70;;;;;;5043669;28;20523;-74
2024/01/17 07:09:25;;;;;;;10.30;8.05;;;11.40;96.70;;;;;;5044287;28;20053;-74
2024/01/17 07:11:54;;;;;;;9.73;7.68;;;11.40;96.70;;;;;;5047474;28;20631;-74
2024/01/17 07:14:32;;;;;;;9.32;7.65;;;11.40;96.70;;;;;;5062044;28;20053;-74
2024/01/17 07:20:16;;;;;;;8.27;7.22;;;11.30;96.70;;;;;;5075748;28;20684;-74
2024/01/17 07:22:56;;;;;;;9.15;7.20;;;11.30;96.70;;;;;;5057064;28;20067;-74
2024/01/17 07:26:15;;;;;;;10.75;7.88;;;11.30;96.70;;;;;;4993154;28;20561;-74
2024/01/17 07:28:46;;;;;;;10.10;8.13;;;11.30;96.70;;;;;;5028116;28;20502;-74
2024/01/17 07:31:19;;;;;;;9.68;7.00;;;11.30;96.70;;;;;;5070339;28;20060;-74
2024/01/17 07:33:49;;;;;;;12.48;7.78;;;11.40;96.70;;;;;;5047233;28;20148;-74
2024/01/17 07:36:18;;;;;;;8.90;7.50;;;11.40;96.70;;;;;;5067095;28;20063;-74
2024/01/17 07:38:46;;;;;;;9.85;7.50;;;11.40;96.70;;;;;;5054835;28;20127;-74
2024/01/17 07:41:15;;;;;;;9.45;7.55;;;11.40;96.70;;;;;;5048716;28;20075;-74
2024/01/17 07:43:44;;;;;;;10.98;7.55;;;11.50;96.70;;;;;;5070657;28;20067;-74
2024/01/17 07:46:15;;;;;;;8.77;7.15;;;11.50;96.70;;;;;;5056334;28;20063;-74
2024/01/17 07:48:43;;;;;;;9.68;7.50;;;11.40;96.70;;;;;;5042151;28;20052;-74
2024/01/17 07:51:14;;;;;;;13.60;10.15;;;11.40;96.70;;;;;;5068043;28;20537;-74
2024/01/17 07:53:43;;;;;;;10.52;9.02;;;11.40;96.70;;;;;;5053564;28;20521;-74
2024/01/17 07:56:12;;;;;;;11.38;8.88;;;11.40;96.70;;;;;;5064229;28;20049;-74
2024/01/17 07:58:40;;;;;;;11.40;9.00;;;11.40;96.70;;;;;;5072989;28;20051;-75
2024/01/17 08:01:09;;;;;;;9.80;8.00;;;11.40;96.70;;;;;;5063170;28;20056;-74
2024/01/17 08:03:39;;;;;;;9.85;7.88;;;11.50;96.70;;;;;;5070627;28;20578;-74
2024/01/17 08:06:09;;;;;;;9.75;7.47;;;11.40;96.70;;;;;;5069250;28;20443;-74
2024/01/17 08:08:42;;;;;;;8.38;7.47;;;11.40;96.70;;;;;;5038889;28;20139;-74
2024/01/17 08:11:14;;;;;;;12.63;8.25;;;11.40;96.70;;;;;;5072626;28;20143;-74
2024/01/17 08:13:42;;;;;;;9.45;7.18;;;11.40;96.70;;;;;;5057056;28;20666;-74
2024/01/17 08:16:10;;;;;;;10.10;7.43;;;11.40;96.70;;;;;;5062305;28;20048;-75
2024/01/17 08:18:40;;;;;;;9.60;7.07;;;11.40;96.70;;;;;;5064475;28;20470;-75
2024/01/17 08:21:08;;;;;;;9.20;7.28;;;11.40;96.70;;;;;;5065906;28;20556;-75
2024/01/17 08:23:37;;;;;;;10.75;7.85;;;11.40;96.70;;;;;;5084825;28;20047;-75
2024/01/17 08:26:08;;;;;;;8.40;7.03;;;11.40;96.70;;;;;;5088328;28;20060;-75
2024/01/17 08:28:37;;;;;;;9.27;7.03;;;11.40;96.70;;;;;;5048537;28;20101;-75
2024/01/17 08:31:06;;;;;;;10.43;7.32;;;11.50;96.70;;;;;;5071147;28;20600;-75
2024/01/17 08:33:36;;;;;;;11.75;8.32;;;11.50;96.70;;;;;;5061224;28;20048;-77
2024/01/17 08:36:08;;;;;;;10.48;7.57;;;11.50;96.70;;;;;;5064094;28;20055;-77
2024/01/17 08:38:37;;;;;;;10.80;7.32;;;11.40;96.70;;;;;;5069565;28;20052;-76
2024/01/17 08:41:08;;;;;;;11.85;7.63;;;11.40;96.70;;;;;;5087366;28;20065;-77
2024/01/17 08:43:41;;;;;;;10.15;7.35;;;11.40;96.70;;;;;;5055787;28;20099;-77
2024/01/17 08:46:11;;;;;;;9.48;7.18;;;11.40;96.70;;;;;;5069119;28;20056;-77
2024/01/17 08:48:46;;;;;;;10.82;7.13;;;11.50;96.70;;;;;;5070372;28;20766;-77
2024/01/17 08:51:17;;;;;;;13.02;7.57;;;11.50;96.70;;;;;;5074873;28;20059;-77
2024/01/17 08:53:47;;;;;;;8.95;7.22;;;11.50;96.70;;;;;;5080838;28;20100;-77
2024/01/17 08:56:18;;;;;;;13.43;7.15;;;11.50;96.70;;;;;;5066930;28;20072;-76
2024/01/17 08:59:39;;;;;;;11.52;7.15;;;11.50;96.70;;;;;;5085760;28;20127;-76
2024/01/17 09:02:35;;;;;;;9.30;7.32;;;11.50;96.70;;;;;;5071255;28;20143;-77
2024/01/17 09:05:11;;;;;;;12.70;7.95;;;11.50;96.70;;;;;;5075217;28;20451;-77
2024/01/17 09:07:43;;;;;;;10.23;7.82;;;11.50;96.70;;;;;;5069462;28;20139;-78
2024/01/17 09:10:13;;;;;;;13.80;8.85;;;11.50;96.70;;;;;;5076223;28;20459;-77
2024/01/17 09:12:44;;;;;;;13.00;8.32;;;11.50;96.70;;;;;;5072861;28;20062;-76
2024/01/17 09:15:13;;;;;;;11.23;8.00;;;11.50;96.70;;;;;;5065616;28;20060;-76
2024/01/17 09:17:49;;;;;;;10.40;8.13;;;11.50;96.70;;;;;;5085416;28;20067;-78
2024/01/17 09:20:24;;;;;;;11.77;8.10;;;11.40;96.70;;;;;;5077585;28;20171;-78
2024/01/17 09:22:57;;;;;;;9.15;7.03;;;11.50;96.70;;;;;;5076918;28;20117;-76
2024/01/17 09:25:25;;;;;;;11.30;7.78;;;11.50;96.70;;;;;;5057205;28;20118;-78
2024/01/17 09:27:56;;;;;;;9.73;7.50;;;11.50;96.70;;;;;;5072453;28;20568;-76
2024/01/17 09:30:27;;;;;;;8.18;7.20;;;11.50;96.70;;;;;;5077662;28;20072;-77
2024/01/17 09:32:56;;;;;;;10.18;6.90;;;11.50;96.70;;;;;;5076269;28;20056;-77
2024/01/17 09:35:25;;;;;;;9.90;6.88;;;11.50;96.70;;;;;;5065053;28;20155;-77
2024/01/17 09:38:20;;;;;;;10.30;6.72;;;11.50;96.70;;;;;;5085544;28;20052;-77
2024/01/17 09:41:59;;;;;;;9.63;6.35;;;11.50;96.70;;;;;;5043229;28;20048;-77
2024/01/17 09:45:18;;;;;;;10.98;7.18;;;11.60;96.70;;;;;;5062135;28;20056;-77
2024/01/17 09:48:07;;;;;;;9.20;6.60;;;11.60;96.70;;;;;;5074436;28;20468;-77
2024/01/17 09:55:04;;;;;;;10.60;6.68;;;11.60;96.70;;;;;;5050843;28;20059;-77
2024/01/17 09:57:49;;;;;;;9.45;7.72;;;11.60;96.70;;;;;;5065586;28;20048;-77
2024/01/17 10:00:44;;;;;;;7.90;6.47;;;11.60;96.70;;;;;;5023714;28;20745;-77
2024/01/17 10:03:24;;;;;;;10.77;7.37;;;11.60;96.70;;;;;;5023174;28;21172;-77
2024/01/17 10:05:57;;;;;;;10.23;7.88;;;11.60;96.70;;;;;;5000640;28;20061;-77
2024/01/17 10:08:29;;;;;;;10.38;7.15;;;11.70;96.70;;;;;;5024887;28;20057;-76
2024/01/17 10:11:03;;;;;;;12.85;7.43;;;11.60;96.70;;;;;;5023429;28;20204;-76
2024/01/17 10:13:34;;;;;;;10.40;7.47;;;11.60;96.70;;;;;;5006968;28;20061;-77
2024/01/17 10:16:08;;;;;;;10.30;6.68;;;11.60;96.70;;;;;;5021712;28;20067;-77
2024/01/17 10:18:38;;;;;;;11.25;7.35;;;11.60;96.70;;;;;;5002109;28;20110;-77
2024/01/17 10:21:17;;;;;;;14.25;7.47;;;11.60;96.70;;;;;;5017256;28;20057;-77
2024/01/17 10:23:54;;;;;;;8.43;6.72;;;11.60;96.70;;;;;;5022598;28;20061;-77
2024/01/17 10:26:32;;;;;;;12.55;7.30;;;11.60;96.70;;;;;;5022748;28;20154;-77
2024/01/17 10:29:08;;;;;;;9.45;6.90;;;11.60;96.70;;;;;;5023799;28;20084;-77
2024/01/17 10:32:02;;;;;;;9.05;6.95;;;11.60;96.70;;;;;;5041057;28;20056;-77
2024/01/17 10:36:03;;;;;;;11.25;7.55;;;11.60;96.70;;;;;;5085935;28;20135;-76
2024/01/17 10:38:41;;;;;;;10.98;7.32;;;11.70;96.70;;;;;;5080322;28;20067;-77
2024/01/17 10:41:14;;;;;;;10.63;7.03;;;11.60;96.70;;;;;;5076933;28;20128;-77
2024/01/17 10:44:07;;;;;;;13.43;6.88;;;11.60;96.70;;;;;;5079370;28;20684;-76
2024/01/17 10:46:52;;;;;;;12.55;8.02;;;11.70;96.70;;;;;;5078149;28;20048;-77
2024/01/17 10:49:30;;;;;;;10.57;7.30;;;11.70;96.70;;;;;;5083491;28;20055;-77
2024/01/17 10:52:14;;;;;;;12.18;6.88;;;11.70;96.70;;;;;;5065773;28;20056;-77
2024/01/17 10:55:14;;;;;;;10.63;6.90;;;11.80;96.70;;;;;;5079041;28;20062;-77
2024/01/17 10:58:01;;;;;;;14.10;7.55;;;11.80;96.70;;;;;;5055719;28;20064;-77
2024/01/17 11:01:03;;;;;;;11.80;7.03;;;11.80;96.70;;;;;;5066209;28;20067;-77
2024/01/17 11:03:47;;;;;;;9.98;6.80;;;11.90;96.70;;;;;;5048531;28;20421;-77
2024/01/17 11:06:24;;;;;;;8.10;5.88;;;11.90;96.70;;;;;;5068555;28;20051;-75
2024/01/17 11:08:57;;;;;;;9.27;5.50;;;11.90;96.70;;;;;;5063891;28;20784;-75
2024/01/17 11:11:28;;;;;;;9.82;6.55;;;11.90;96.70;;;;;;5074581;28;20075;-76
2024/01/17 11:13:58;;;;;;;8.05;5.70;;;11.90;96.70;;;;;;5070866;28;20662;-75
2024/01/17 11:16:30;;;;;;;9.98;6.93;;;11.90;96.70;;;;;;5052739;28;20056;-76
2024/01/17 11:19:03;;;;;;;12.98;7.60;;;11.90;96.70;;;;;;5082587;28;20109;-77
2024/01/17 11:21:35;;;;;;;13.43;8.68;;;11.90;96.70;;;;;;5071767;28;20061;-76
2024/01/17 11:24:40;;;;;;;14.18;8.10;;;11.90;96.70;;;;;;5074189;28;20114;-76
2024/01/17 11:27:21;;;;;;;14.80;8.27;;;11.90;96.70;;;;;;5065034;28;20052;-77
2024/01/17 11:30:20;;;;;;;14.98;8.70;;;11.90;96.70;;;;;;5065982;28;20553;-76
2024/01/17 11:33:16;;;;;;;17.05;8.65;;;11.90;96.70;;;;;;5074767;28;20558;-76
2024/01/17 11:37:21;;;;;;;17.38;8.93;;;11.90;96.70;;;;;;5024952;28;20054;-76
2024/01/17 11:41:20;;;;;;;16.27;8.10;;;11.90;96.70;;;;;;4954195;28;20047;-76
2024/01/17 11:44:23;;;;;;;13.63;7.25;;;12.00;96.70;;;;;;4953918;28;20062;-75
2024/01/17 11:47:36;;;;;;;;;;;;;;;;;;;;;
2024/01/17 11:50:24;;;;;;;9.05;6.15;;;12.00;96.70;;;;;;4970654;28;20070;-76
2024/01/17 11:52:53;;;;;;;10.00;5.80;;;12.00;96.70;;;;;;4981600;28;20073;-75
2024/01/17 11:59:16;;;;;;;10.98;8.30;;;12.00;96.70;;;;;;4965183;28;20077;-76
2024/01/17 12:01:55;;;;;;;10.73;6.75;;;12.10;96.70;;;;;;4973312;28;20587;-77
2024/01/17 12:04:33;;;;;;;8.43;5.90;;;12.10;96.70;;;;;;5016123;28;20063;-76
2024/01/17 12:07:34;;;;;;;9.75;6.97;;;12.20;96.70;;;;;;5061379;28;20056;-76
2024/01/17 12:10:40;;;;;;;10.00;7.80;;;12.20;96.70;;;;;;5037390;28;20099;-76
2024/01/17 12:13:09;;;;;;;7.72;6.70;;;12.30;96.70;;;;;;5046105;28;20052;-76
2024/01/17 12:16:07;;;;;;;11.63;7.68;;;12.30;96.70;;;;;;5067422;28;20442;-76
2024/01/17 12:19:46;;;;;;;7.45;6.32;;;12.30;96.70;;;;;;5056989;28;20088;-76
2024/01/17 12:23:11;;;;;;;14.70;11.15;;;12.20;96.70;;;;;;5053988;28;20137;-76
2024/01/17 12:25:43;;;;;;;11.30;7.22;;;12.30;96.70;;;;;;5062972;28;20131;-76
2024/01/17 12:29:12;;;;;;;12.95;9.65;;;12.30;96.70;;;;;;5033635;28;20064;-76
2024/01/17 12:32:25;;;;;;;9.77;7.50;;;12.30;96.70;;;;;;5005046;28;20132;-76
2024/01/17 12:35:46;;;;;;;;;;;;;;;;;;;;;
2024/01/17 12:38:50;;;;;;;10.18;6.63;;;12.30;96.70;;;;;;5004830;28;20714;-76
2024/01/17 12:41:25;;;;;;;8.32;7.10;;;12.40;96.70;;;;;;5005172;28;20475;-76
2024/01/17 12:44:16;;;;;;;;;;;12.40;96.70;;;;;;5001932;28;20060;-78
2024/01/17 12:46:46;;;;;;;8.38;7.18;;;12.40;96.70;;;;;;5004688;28;19926;-78
2024/01/17 12:49:15;;;;;;;8.30;6.93;;;12.40;96.70;;;;;;4988226;28;20084;-78
2024/01/17 12:51:45;;;;;;;9.00;6.65;;;12.40;96.70;;;;;;5005030;28;20596;-78
2024/01/17 12:54:19;;;;;;;7.97;6.38;;;12.40;96.70;;;;;;5004997;28;20053;-78
2024/01/17 12:56:48;;;;;;;6.78;5.65;;;12.30;96.70;;;;;;5007110;28;20090;-78
2024/01/17 12:59:17;;;;;;;7.35;6.03;;;12.40;96.70;;;;;;4999372;28;21308;-78
2024/01/17 13:01:45;;;;;;;6.18;5.35;;;12.40;96.70;;;;;;4995718;28;20173;-78
2024/01/17 13:04:14;;;;;;;8.52;7.40;;;12.30;96.70;;;;;;4996110;28;20092;-78
2024/01/17 13:06:45;;;;;;;9.18;7.28;;;12.40;96.70;;;;;;4979608;28;20573;-78
2024/01/17 13:09:16;;;;;;;8.90;7.47;;;12.40;96.70;;;;;;5078654;28;20060;-78
2024/01/17 13:11:49;;;;;;;8.65;7.72;;;12.40;96.70;;;;;;5084372;28;20153;-78
2024/01/17 13:14:18;;;;;;;9.57;7.78;;;12.40;96.70;;;;;;5065226;28;20552;-78
2024/01/17 13:16:48;;;;;;;9.32;6.95;;;12.50;96.70;;;;;;5062145;28;20588;-78
2024/01/17 13:19:16;;;;;;;7.45;6.75;;;12.50;96.70;;;;;;5083504;28;20083;-78
2024/01/17 13:21:47;;;;;;;8.15;7.13;;;12.50;96.70;;;;;;5068589;28;20056;-78
2024/01/17 13:24:16;;;;;;;11.80;10.43;;;12.50;96.70;;;;;;5074511;28;20064;-78
2024/01/17 13:26:45;;;;;;;9.18;8.05;;;12.50;96.70;;;;;;5072166;28;20048;-77
2024/01/17 13:29:14;;;;;;;10.75;8.60;;;12.50;96.70;;;;;;5053815;28;20057;-78
2024/01/17 13:31:44;;;;;;;10.88;8.20;;;12.50;96.70;;;;;;5066034;28;20052;-78
2024/01/17 13:34:13;;;;;;;10.00;8.25;;;12.50;96.70;;;;;;5083888;28;20064;-78
2024/01/17 13:36:41;;;;;;;9.65;7.72;;;12.50;96.70;;;;;;5076072;28;20087;-78
2024/01/17 13:39:12;;;;;;;15.32;9.02;;;12.50;96.70;;;;;;5080668;28;20118;-78
2024/01/17 13:41:41;;;;;;;11.25;9.38;;;12.60;96.70;;;;;;5081038;28;20080;-78
2024/01/17 13:44:11;;;;;;;12.07;9.63;;;12.60;96.70;;;;;;5062260;28;20056;-78
2024/01/17 13:46:40;;;;;;;11.68;8.60;;;12.70;96.70;;;;;;5067637;28;20053;-78
2024/01/17 13:49:10;;;;;;;11.85;9.32;;;12.70;96.70;;;;;;5083064;28;20056;-77
2024/01/17 13:51:44;;;;;;;13.68;11.30;;;12.60;96.70;;;;;;5084554;28;20039;-78
2024/01/17 13:54:21;;;;;;;10.38;9.27;;;12.60;96.70;;;;;;5081935;28;20059;-78
2024/01/17 13:56:51;;;;;;;11.25;9.98;;;12.70;96.70;;;;;;5058172;28;20051;-78
2024/01/17 13:59:20;;;;;;;13.10;11.02;;;12.70;96.70;;;;;;5084538;28;20087;-78
2024/01/17 14:01:48;;;;;;;13.40;11.70;;;12.70;96.70;;;;;;5086238;28;20718;-78
2024/01/17 14:04:17;;;;;;;10.80;9.70;;;12.70;96.70;;;;;;5070768;28;20048;-78
2024/01/17 14:06:46;;;;;;;12.90;11.25;;;12.70;96.70;;;;;;5084616;28;20044;-77
2024/01/17 14:09:17;;;;;;;11.20;9.88;;;12.60;96.70;;;;;;5067190;28;20060;-78
2024/01/17 14:11:51;;;;;;;12.20;10.35;;;12.60;96.70;;;;;;5060290;28;20052;-78
2024/01/17 14:14:22;;;;;;;11.32;10.02;;;12.60;96.70;;;;;;5077073;28;20139;-77
2024/01/17 14:16:51;;;;;;;12.52;9.77;;;12.60;96.70;;;;;;5089814;28;20657;-78
2024/01/17 14:19:19;;;;;;;11.95;10.18;;;12.60;96.70;;;;;;5084802;28;20516;-78
2024/01/17 14:21:47;;;;;;;15.32;12.15;;;12.60;96.70;;;;;;5087234;28;20044;-78
2024/01/17 14:24:16;;;;;;;17.27;14.00;;;12.60;96.70;;;;;;5083831;28;20917;-78
2024/01/17 14:26:45;;;;;;;17.85;14.52;;;12.60;96.70;;;;;;5083911;28;20629;-78
2024/01/17 14:29:16;;;;;;;17.50;14.88;;;12.70;96.70;;;;;;5078148;28;20565;-78
2024/01/17 14:31:44;;;;;;;16.10;12.45;;;12.80;96.70;;;;;;5083183;28;20416;-78
2024/01/17 14:34:15;;;;;;;14.40;12.57;;;12.80;96.70;;;;;;5083573;28;20060;-78
2024/01/17 14:36:43;;;;;;;11.88;10.57;;;12.80;96.70;;;;;;5071649;28;20105;-78
2024/01/17 14:39:13;;;;;;;12.50;9.35;;;12.80;96.70;;;;;;5082413;28;20056;-77
2024/01/17 14:41:42;;;;;;;13.18;9.30;;;12.80;96.70;;;;;;5085704;28;20074;-78
2024/01/17 14:44:10;;;;;;;13.35;9.30;;;12.80;96.70;;;;;;5085505;28;20091;-77
2024/01/17 14:46:43;;;;;;;11.77;9.40;;;12.80;96.70;;;;;;5074278;28;20139;-78
2024/01/17 14:49:13;;;;;;;14.27;10.43;;;12.90;96.70;;;;;;5083819;28;20060;-77
2024/01/17 14:51:43;;;;;;;13.00;10.35;;;12.90;96.70;;;;;;5081973;28;20051;-78
2024/01/17 14:54:13;;;;;;;14.68;11.07;;;12.90;96.70;;;;;;5064398;28;20059;-77
2024/01/17 14:56:43;;;;;;;13.43;11.60;;;12.90;96.70;;;;;;5082979;28;20536;-78
2024/01/17 14:59:11;;;;;;;14.15;11.95;;;12.90;96.70;;;;;;5074917;28;20056;-78
2024/01/17 15:01:43;;;;;;;14.38;12.43;;;12.90;96.70;;;;;;5065152;28;20468;-78
2024/01/17 15:04:13;;;;;;;20.20;11.73;;;12.90;96.70;;;;;;5065167;28;20604;-77
2024/01/17 15:06:41;;;;;;;16.80;11.88;;;12.90;96.70;;;;;;5064810;28;20048;-78
2024/01/17 15:09:16;;;;;;;19.48;13.10;;;12.90;96.70;;;;;;5068726;28;20056;-78
2024/01/17 15:11:49;;;;;;;19.67;14.30;;;12.90;96.70;;;;;;5067281;28;20047;-78
2024/01/17 15:14:17;;;;;;;19.70;13.25;;;12.90;96.70;;;;;;5070290;28;20052;-78
2024/01/17 15:16:51;;;;;;;23.92;13.90;;;12.90;96.70;;;;;;5069734;28;20054;-78
2024/01/17 15:19:19;;;;;;;20.88;14.88;;;12.80;96.70;;;;;;5064568;28;20127;-78
2024/01/17 15:21:48;;;;;;;18.17;13.32;;;12.80;96.70;;;;;;5058850;28;20084;-77
2024/01/17 15:24:16;;;;;;;20.85;12.32;;;12.70;96.70;;;;;;5060724;28;20052;-77
2024/01/17 15:26:44;;;;;;;20.17;15.75;;;12.70;96.70;;;;;;5068352;28;20052;-77
2024/01/17 15:29:14;;;;;;;19.75;15.02;;;12.70;96.70;;;;;;5070022;28;20408;-78